RKSI/ICN METAR and TAF weather

Enter ICAO airport designator
Station Type Date Time Source
RKSI METAR 2019/12/12 17:00 UTC NOAA

RKSI 121700Z 13005KT CAVOK M01/M05 Q1030 NOSIG


Station Type Date Time Source
RKSI Decoded METAR 2019/12/12 17:00 UTC NOAA

Incheon International Airport, Korea, South (RKSI) 37-28N 126-27E
Dec 12, 2019 - 12:00 PM EST / 2019.12.12 1700 UTC
Wind: from the SE (130 degrees) at 6 MPH (5 KT):0
Visibility: greater than 7 mile(s):0
Temperature: 30 F (-1 C)
Windchill: 23 F (-5 C):1
Dew Point: 23 F (-5 C)
Relative Humidity: 74%
Pressure (altimeter): 30.42 in. Hg (1030 hPa)
ob: RKSI 121700Z 13005KT CAVOK M01/M05 Q1030 NOSIG
cycle: 17

Station Type Date Time Source
RKSI TAF 2019/12/12 18:06 UTC NOAA

TAF RKSI 121700Z 1218/1324 14006KT 9999 FEW035 BKN180 TNM02/1221Z TX08/1306Z TNM01/1321Z
BECMG 1306/1307 22010KT
BECMG 1311/1312 4200 -RA FEW010 BKN025 OVC080
BECMG 1313/1314 28012KT 2800
BECMG 1316/1317 32018G30KT 6000 NSW SCT035

Example: see airport list